createdAt,value
2023-04-07T00:01:25.697Z,-0.38
2023-04-07T00:03:55.438Z,0.01
2023-04-07T00:06:23.921Z,0.00
2023-04-07T00:08:54.788Z,-0.19
2023-04-07T00:11:22.621Z,-0.34
2023-04-07T00:13:50.359Z,0.05
2023-04-07T00:16:20.370Z,-0.10
2023-04-07T00:18:50.064Z,-0.06
2023-04-07T00:21:17.865Z,-0.18
2023-04-07T00:23:47.836Z,0.00
2023-04-07T00:26:21.124Z,0.06
2023-04-07T00:28:48.880Z,0.10
2023-04-07T00:31:16.674Z,-0.28
2023-04-07T00:33:51.428Z,-0.03
2023-04-07T00:36:19.144Z,0.12
2023-04-07T00:38:46.814Z,-0.03
2023-04-07T00:41:21.725Z,-0.23
2023-04-07T00:43:51.408Z,-0.22
2023-04-07T00:46:23.442Z,-0.10
2023-04-07T00:48:51.344Z,0.01
2023-04-07T00:51:24.743Z,-0.17
2023-04-07T00:53:52.667Z,-0.09
2023-04-07T00:56:24.189Z,-0.11
2023-04-07T00:58:53.954Z,0.06
2023-04-07T01:01:27.332Z,-0.16
2023-04-07T01:04:04.299Z,-0.05
2023-04-07T01:06:42.210Z,-0.07
2023-04-07T01:09:21.002Z,-0.15
2023-04-07T01:12:00.718Z,-0.06
2023-04-07T01:14:38.677Z,-0.17
2023-04-07T01:17:09.268Z,-0.14
2023-04-07T01:19:39.197Z,-0.02
2023-04-07T01:22:13.722Z,0.05
2023-04-07T01:25:04.099Z,-0.09
2023-04-07T01:27:46.193Z,0.00
2023-04-07T01:30:17.926Z,-0.07
2023-04-07T01:32:55.296Z,-0.21
2023-04-07T01:35:24.235Z,-0.35
2023-04-07T01:37:55.219Z,0.01
2023-04-07T01:40:26.106Z,0.01
2023-04-07T01:42:58.213Z,-0.01
2023-04-07T01:45:30.805Z,-0.24
2023-04-07T01:47:59.180Z,0.13
2023-04-07T01:50:27.998Z,0.12
2023-04-07T01:52:58.576Z,0.04
2023-04-07T01:55:28.532Z,0.03
2023-04-07T01:57:56.239Z,-0.14
2023-04-07T02:00:24.071Z,-0.25
2023-04-07T02:03:05.915Z,-0.01
2023-04-07T02:05:39.048Z,0.17
2023-04-07T02:08:12.454Z,0.20
2023-04-07T02:10:40.445Z,0.05
2023-04-07T02:13:14.376Z,0.12
2023-04-07T02:15:46.168Z,-0.06
2023-04-07T02:18:18.862Z,-0.28
2023-04-07T02:20:51.812Z,-0.04
2023-04-07T02:23:22.356Z,0.06
2023-04-07T02:25:49.975Z,0.09
2023-04-07T02:28:21.764Z,-0.08
2023-04-07T02:30:49.534Z,0.06
2023-04-07T02:33:22.883Z,0.02
2023-04-07T02:35:52.562Z,-0.08
2023-04-07T02:38:20.454Z,0.03
2023-04-07T02:40:50.433Z,-0.03
2023-04-07T02:43:22.725Z,-0.09
2023-04-07T02:45:50.664Z,-0.10
2023-04-07T02:48:21.478Z,-0.13
2023-04-07T02:50:51.090Z,-0.12
2023-04-07T02:53:18.809Z,-0.01
2023-04-07T02:55:48.803Z,0.08
2023-04-07T02:58:18.377Z,0.11
2023-04-07T03:00:46.132Z,0.07
2023-04-07T03:03:16.364Z,0.11
2023-04-07T03:05:47.307Z,-0.01
2023-04-07T03:08:15.030Z,-0.06
2023-04-07T03:10:45.026Z,-0.08
2023-04-07T03:13:18.126Z,-0.10
2023-04-07T03:15:48.079Z,-0.09
2023-04-07T03:18:15.957Z,0.01
2023-04-07T03:20:49.417Z,0.02
2023-04-07T03:23:17.379Z,-0.10
2023-04-07T03:25:46.837Z,-0.07
2023-04-07T03:28:17.495Z,-0.17
2023-04-07T03:30:47.440Z,-0.09
2023-04-07T03:33:15.484Z,0.05
2023-04-07T03:35:46.815Z,0.12
2023-04-07T03:38:16.856Z,-0.06
2023-04-07T03:40:44.610Z,-0.05
2023-04-07T03:43:17.607Z,0.03
2023-04-07T03:45:48.068Z,0.03
2023-04-07T03:48:15.682Z,0.10
2023-04-07T03:50:46.774Z,0.03
2023-04-07T03:53:16.954Z,-0.14
2023-04-07T03:55:44.839Z,-0.02
2023-04-07T03:58:12.803Z,-0.01
2023-04-07T04:00:42.898Z,-0.07
2023-04-07T04:03:11.872Z,-0.10
2023-04-07T04:05:42.363Z,-0.03
2023-04-07T04:08:13.193Z,0.09
2023-04-07T04:10:41.319Z,-0.05
2023-04-07T04:13:10.887Z,-0.16
2023-04-07T04:15:41.039Z,-0.01
2023-04-07T04:18:08.814Z,-0.10
2023-04-07T04:20:39.389Z,-0.06
2023-04-07T04:23:09.333Z,0.01
2023-04-07T04:25:42.899Z,0.12
2023-04-07T04:28:13.002Z,0.12
2023-04-07T04:30:40.717Z,0.19
2023-04-07T04:33:10.854Z,0.12
2023-04-07T04:35:41.857Z,0.22
2023-04-07T04:38:09.547Z,0.16
2023-04-07T04:40:40.522Z,0.16
2023-04-07T04:43:10.440Z,0.22
2023-04-07T04:45:38.179Z,0.24
2023-04-07T04:48:11.157Z,0.14
2023-04-07T04:50:38.904Z,0.15
2023-04-07T04:53:06.675Z,0.17
2023-04-07T04:55:40.421Z,0.23
2023-04-07T04:58:08.183Z,0.21
2023-04-07T05:00:36.142Z,0.09
2023-04-07T05:03:08.528Z,0.10
2023-04-07T05:05:36.466Z,0.08
2023-04-07T05:08:04.595Z,0.16
2023-04-07T05:10:36.381Z,0.08
2023-04-07T05:13:05.446Z,0.19
2023-04-07T05:15:33.183Z,0.09
2023-04-07T05:18:06.052Z,0.21
2023-04-07T05:20:33.779Z,0.24
2023-04-07T05:23:01.495Z,0.14
2023-04-07T05:25:33.374Z,0.06
2023-04-07T05:28:01.104Z,0.24
2023-04-07T05:30:30.164Z,0.03
2023-04-07T05:33:00.299Z,0.23
2023-04-07T05:35:28.094Z,0.20
2023-04-07T05:37:56.248Z,0.32
2023-04-07T05:40:28.275Z,0.41
2023-04-07T05:42:56.014Z,0.40
2023-04-07T05:45:23.818Z,0.48
2023-04-07T05:47:56.688Z,0.33
2023-04-07T05:50:24.503Z,0.54
2023-04-07T05:52:52.384Z,0.26
2023-04-07T05:55:22.398Z,0.38
2023-04-07T05:57:50.408Z,0.49
2023-04-07T06:00:19.526Z,0.56
2023-04-07T06:02:51.500Z,0.46
2023-04-07T06:05:21.253Z,0.60
2023-04-07T06:07:49.135Z,0.55
2023-04-07T06:10:21.184Z,0.48
2023-04-07T06:12:48.905Z,0.39
2023-04-07T06:15:16.729Z,0.49
2023-04-07T06:17:48.054Z,0.61
2023-04-07T06:20:21.629Z,0.54
2023-04-07T06:22:51.619Z,0.62
2023-04-07T06:25:19.590Z,0.50
2023-04-07T06:27:47.704Z,0.65
2023-04-07T06:30:16.156Z,0.69
2023-04-07T06:32:44.134Z,0.71
2023-04-07T06:35:11.989Z,0.83
2023-04-07T06:37:43.523Z,0.71
2023-04-07T06:40:11.358Z,0.83
2023-04-07T06:42:41.408Z,0.87
2023-04-07T06:45:12.771Z,0.67
2023-04-07T06:47:40.608Z,0.81
2023-04-07T06:50:11.096Z,0.83
2023-04-07T06:52:40.591Z,0.79
2023-04-07T06:55:11.060Z,0.84
2023-04-07T06:57:40.781Z,0.82
2023-04-07T07:00:12.449Z,0.94
2023-04-07T07:02:40.408Z,0.98
2023-04-07T07:05:11.447Z,0.95
2023-04-07T07:07:41.504Z,0.90
2023-04-07T07:10:12.822Z,0.99
2023-04-07T07:12:40.563Z,1.09
2023-04-07T07:15:11.201Z,0.66
2023-04-07T07:17:41.469Z,1.24
2023-04-07T07:20:10.437Z,1.26
2023-04-07T07:22:38.278Z,1.02
2023-04-07T07:25:06.748Z,1.00
2023-04-07T07:27:38.742Z,0.98
2023-04-07T07:30:08.051Z,0.99
2023-04-07T07:32:35.958Z,0.94
2023-04-07T07:35:03.710Z,1.11
2023-04-07T07:37:31.913Z,1.29
2023-04-07T07:39:59.672Z,1.13
2023-04-07T07:42:27.367Z,1.22
2023-04-07T07:45:00.424Z,1.23
2023-04-07T07:47:28.421Z,1.28
2023-04-07T07:49:56.305Z,0.93
2023-04-07T07:52:24.237Z,1.07
2023-04-07T07:54:52.434Z,1.11
2023-04-07T07:57:20.477Z,1.19
2023-04-07T07:59:48.393Z,1.22
2023-04-07T08:02:17.522Z,1.07
2023-04-07T08:04:45.467Z,1.18
2023-04-07T08:07:13.605Z,1.00
2023-04-07T08:09:41.577Z,1.30
2023-04-07T08:12:09.298Z,1.33
2023-04-07T08:14:37.252Z,1.21
2023-04-07T08:17:04.988Z,1.50
2023-04-07T08:19:34.122Z,1.46
2023-04-07T08:22:05.973Z,1.27
2023-04-07T08:24:33.688Z,1.48
2023-04-07T08:27:02.245Z,1.31
2023-04-07T08:29:33.924Z,1.29
2023-04-07T08:32:02.353Z,1.61
2023-04-07T08:34:30.176Z,1.30
2023-04-07T08:37:03.322Z,1.55
2023-04-07T08:39:31.032Z,1.67
2023-04-07T08:41:59.449Z,1.50
2023-04-07T08:44:32.767Z,1.77
2023-04-07T08:47:02.542Z,1.71
2023-04-07T08:49:36.238Z,1.61
2023-04-07T08:52:09.561Z,1.84
2023-04-07T08:54:39.960Z,1.73
2023-04-07T08:57:09.388Z,1.26
2023-04-07T08:59:37.975Z,1.75
2023-04-07T09:02:10.471Z,1.74
2023-04-07T09:04:38.208Z,1.79
2023-04-07T09:07:08.475Z,1.79
2023-04-07T09:09:36.512Z,1.98
2023-04-07T09:12:04.382Z,1.76
2023-04-07T09:14:32.090Z,1.85
2023-04-07T09:17:00.976Z,1.95
2023-04-07T09:19:30.829Z,2.06
2023-04-07T09:22:01.192Z,1.99
2023-04-07T09:24:32.113Z,2.21
2023-04-07T09:27:16.569Z,2.15
2023-04-07T09:29:46.490Z,2.05
2023-04-07T09:32:14.760Z,1.75
2023-04-07T09:34:42.744Z,1.80
2023-04-07T09:37:25.050Z,1.93
2023-04-07T09:39:55.372Z,2.07
2023-04-07T09:42:28.569Z,2.00
2023-04-07T09:44:56.322Z,1.80
2023-04-07T09:47:32.153Z,2.20
2023-04-07T09:50:06.618Z,2.04
2023-04-07T09:52:52.840Z,1.55
2023-04-07T09:55:23.804Z,2.29
2023-04-07T09:57:57.956Z,1.99
2023-04-07T10:00:26.102Z,2.08
2023-04-07T10:02:56.570Z,2.09
2023-04-07T10:05:27.481Z,1.84
2023-04-07T10:07:55.562Z,1.95
2023-04-07T10:10:33.651Z,2.20
2023-04-07T10:13:01.492Z,2.21
2023-04-07T10:15:29.436Z,2.24
2023-04-07T10:17:57.912Z,2.22
2023-04-07T10:20:26.266Z,2.13
2023-04-07T10:22:56.961Z,2.10
2023-04-07T10:25:30.056Z,2.05
2023-04-07T10:28:01.736Z,2.16
2023-04-07T10:30:33.772Z,2.34
2023-04-07T10:33:02.433Z,2.08
2023-04-07T10:35:30.386Z,2.08
2023-04-07T10:38:19.980Z,2.09
2023-04-07T10:40:49.076Z,2.05
2023-04-07T10:43:38.720Z,1.92
2023-04-07T10:46:06.499Z,2.03
2023-04-07T10:48:34.524Z,2.05
2023-04-07T10:51:16.409Z,2.01
2023-04-07T10:54:27.908Z,2.04
2023-04-07T10:57:12.378Z,2.16
2023-04-07T10:59:43.450Z,2.34
2023-04-07T11:02:34.035Z,2.23
2023-04-07T11:05:04.882Z,2.11
2023-04-07T11:07:47.531Z,2.31
2023-04-07T11:10:19.375Z,2.40
2023-04-07T11:13:03.137Z,2.27
2023-04-07T11:15:31.550Z,2.48
2023-04-07T11:18:16.999Z,2.23
2023-04-07T11:20:50.208Z,2.51
2023-04-07T11:23:19.463Z,2.33
2023-04-07T11:25:50.909Z,2.41
2023-04-07T11:28:20.333Z,2.36
2023-04-07T11:30:51.779Z,2.41
2023-04-07T11:33:23.981Z,2.49
2023-04-07T11:35:55.470Z,2.47
2023-04-07T11:38:25.034Z,2.44
2023-04-07T11:40:53.215Z,2.37
2023-04-07T11:43:24.362Z,2.40
2023-04-07T11:46:09.379Z,2.59
2023-04-07T11:48:38.209Z,2.46
2023-04-07T11:51:06.887Z,2.69
2023-04-07T11:53:40.851Z,2.68
2023-04-07T11:56:10.707Z,2.47
2023-04-07T11:58:50.393Z,2.81
2023-04-07T12:01:18.308Z,2.85
2023-04-07T12:04:00.900Z,2.71
2023-04-07T12:06:30.390Z,2.62
2023-04-07T12:09:00.632Z,2.60
2023-04-07T12:11:30.665Z,2.77
2023-04-07T12:14:04.889Z,2.92
2023-04-07T12:16:34.763Z,2.46
2023-04-07T12:19:04.939Z,2.82
2023-04-07T12:21:32.694Z,2.51
2023-04-07T12:24:02.469Z,2.74
2023-04-07T12:26:32.618Z,2.89
2023-04-07T12:29:07.064Z,2.72
2023-04-07T12:31:35.239Z,2.89
2023-04-07T12:34:06.756Z,2.93
2023-04-07T12:36:37.073Z,3.09
2023-04-07T12:39:05.220Z,2.85
2023-04-07T12:41:35.173Z,2.97
2023-04-07T12:44:04.384Z,3.06
2023-04-07T12:46:32.394Z,2.78
2023-04-07T12:49:00.276Z,2.99
2023-04-07T12:51:28.568Z,3.02
2023-04-07T12:53:56.522Z,3.20
2023-04-07T12:56:26.364Z,3.25
2023-04-07T12:58:58.321Z,3.34
2023-04-07T13:01:27.790Z,3.42
2023-04-07T13:03:56.186Z,3.39
2023-04-07T13:06:27.360Z,3.39
2023-04-07T13:08:55.101Z,3.42
2023-04-07T13:11:24.964Z,3.57
2023-04-07T13:13:58.546Z,3.69
2023-04-07T13:16:29.136Z,3.64
2023-04-07T13:18:57.291Z,3.54
2023-04-07T13:21:45.218Z,3.44
2023-04-07T13:24:14.853Z,3.55
2023-04-07T13:26:44.637Z,3.82
2023-04-07T13:29:12.325Z,3.87
2023-04-07T13:31:43.164Z,3.39
2023-04-07T13:34:12.732Z,3.47
2023-04-07T13:36:41.055Z,3.31
2023-04-07T13:39:12.228Z,3.68
2023-04-07T13:41:41.808Z,3.72
2023-04-07T13:44:09.520Z,3.79
2023-04-07T13:46:37.338Z,3.69
2023-04-07T13:49:08.350Z,3.76
2023-04-07T13:51:36.508Z,3.64
2023-04-07T13:54:04.539Z,3.66
2023-04-07T13:56:32.308Z,3.79
2023-04-07T13:59:00.117Z,3.71
2023-04-07T14:01:30.098Z,3.84
2023-04-07T14:04:01.174Z,3.85
2023-04-07T14:06:31.587Z,3.79
2023-04-07T14:08:59.655Z,3.84
2023-04-07T14:11:29.877Z,3.82
2023-04-07T14:13:59.760Z,3.66
2023-04-07T14:16:27.602Z,3.70
2023-04-07T14:18:56.141Z,3.86
2023-04-07T14:21:24.232Z,3.78
2023-04-07T14:23:55.256Z,3.83
2023-04-07T14:26:25.245Z,4.10
2023-04-07T14:28:55.142Z,4.11
2023-04-07T14:31:22.908Z,3.65
2023-04-07T14:33:52.873Z,4.00
2023-04-07T14:36:22.794Z,3.80
2023-04-07T14:38:51.043Z,3.78
2023-04-07T14:41:22.106Z,3.77
2023-04-07T14:43:55.746Z,3.71
2023-04-07T14:46:24.288Z,3.86
2023-04-07T14:48:52.924Z,3.77
2023-04-07T14:51:21.242Z,3.65
2023-04-07T14:53:53.471Z,3.65
2023-04-07T14:56:24.867Z,3.53
2023-04-07T14:58:52.856Z,3.48
2023-04-07T15:01:20.798Z,3.60
2023-04-07T15:03:48.997Z,3.77
2023-04-07T15:06:16.994Z,3.90
2023-04-07T15:08:44.906Z,3.56
2023-04-07T15:11:14.450Z,3.92
2023-04-07T15:13:43.563Z,3.71
2023-04-07T15:16:13.555Z,3.44
2023-04-07T15:18:43.402Z,3.33
2023-04-07T15:21:12.328Z,3.49
2023-04-07T15:23:41.947Z,3.40
2023-04-07T15:26:10.684Z,3.42
2023-04-07T15:28:38.511Z,2.91
2023-04-07T15:31:09.104Z,3.40
2023-04-07T15:33:37.639Z,3.11
2023-04-07T15:36:05.861Z,3.29
2023-04-07T15:38:35.668Z,3.44
2023-04-07T15:41:05.870Z,3.47
2023-04-07T15:43:34.511Z,3.41
2023-04-07T15:46:04.255Z,3.30
2023-04-07T15:48:35.279Z,3.48
2023-04-07T15:51:03.119Z,3.40
2023-04-07T15:53:33.062Z,3.34
2023-04-07T15:56:01.454Z,3.43
2023-04-07T15:58:29.210Z,2.96
2023-04-07T16:00:58.944Z,3.10
2023-04-07T16:03:29.209Z,3.21
2023-04-07T16:05:58.460Z,3.17
2023-04-07T16:08:26.377Z,3.18
2023-04-07T16:10:56.264Z,3.07
2023-04-07T16:13:24.089Z,3.11
2023-04-07T16:15:58.523Z,3.10
2023-04-07T16:18:26.497Z,3.09
2023-04-07T16:20:54.262Z,3.10
2023-04-07T16:23:25.297Z,3.08
2023-04-07T16:25:55.485Z,2.91
2023-04-07T16:28:23.476Z,2.97
2023-04-07T16:30:51.277Z,2.94
2023-04-07T16:33:21.114Z,2.88
2023-04-07T16:35:48.848Z,2.90
2023-04-07T16:38:18.568Z,2.76
2023-04-07T16:41:02.635Z,3.04
2023-04-07T16:43:30.902Z,3.07
2023-04-07T16:46:00.185Z,3.05
2023-04-07T16:48:28.176Z,2.91
2023-04-07T16:50:57.797Z,2.87
2023-04-07T16:53:27.714Z,2.96
2023-04-07T16:55:56.811Z,2.95
2023-04-07T16:58:26.490Z,2.84
2023-04-07T17:00:54.360Z,2.55
2023-04-07T17:03:22.750Z,2.63
2023-04-07T17:05:52.908Z,2.63
2023-04-07T17:08:22.771Z,2.69
2023-04-07T17:10:50.459Z,2.57
2023-04-07T17:13:19.897Z,2.57
2023-04-07T17:15:47.886Z,2.60
2023-04-07T17:18:15.845Z,2.71
2023-04-07T17:20:45.497Z,2.50
2023-04-07T17:23:14.173Z,2.58
2023-04-07T17:25:42.196Z,2.13
2023-04-07T17:28:09.966Z,2.51
2023-04-07T17:30:41.515Z,2.49
2023-04-07T17:33:09.394Z,2.59
2023-04-07T17:35:37.320Z,2.47
2023-04-07T17:38:05.552Z,2.09
2023-04-07T17:40:33.922Z,1.87
2023-04-07T17:43:01.790Z,2.25
2023-04-07T17:45:32.012Z,2.36
2023-04-07T17:48:03.546Z,2.04
2023-04-07T17:50:32.067Z,2.21
2023-04-07T17:53:02.002Z,2.28
2023-04-07T17:55:29.817Z,2.17
2023-04-07T17:58:01.193Z,2.34
2023-04-07T18:00:29.737Z,1.94
2023-04-07T18:02:59.666Z,1.96
2023-04-07T18:05:30.942Z,2.07
2023-04-07T18:08:02.804Z,2.20
2023-04-07T18:10:30.814Z,2.13
2023-04-07T18:12:58.582Z,2.14
2023-04-07T18:15:28.643Z,2.03
2023-04-07T18:17:57.063Z,2.02
2023-04-07T18:20:25.004Z,2.06
2023-04-07T18:22:55.834Z,1.86
2023-04-07T18:25:25.541Z,2.01
2023-04-07T18:27:53.424Z,1.98
2023-04-07T18:30:24.402Z,1.97
2023-04-07T18:32:54.055Z,1.96
2023-04-07T18:35:21.928Z,1.68
2023-04-07T18:37:52.059Z,1.79
2023-04-07T18:40:23.138Z,1.72
2023-04-07T18:42:51.018Z,1.68
2023-04-07T18:45:21.860Z,1.57
2023-04-07T18:47:49.708Z,1.43
2023-04-07T18:50:18.227Z,1.85
2023-04-07T18:52:46.087Z,1.48
2023-04-07T18:55:14.116Z,1.58
2023-04-07T18:57:43.234Z,1.51
2023-04-07T19:00:13.425Z,1.51
2023-04-07T19:02:46.446Z,1.42
2023-04-07T19:05:16.528Z,1.62
2023-04-07T19:07:44.335Z,1.73
2023-04-07T19:10:14.139Z,1.58
2023-04-07T19:12:45.945Z,1.61
2023-04-07T19:15:13.666Z,1.37
2023-04-07T19:17:41.608Z,1.37
2023-04-07T19:20:10.007Z,1.38
2023-04-07T19:22:37.713Z,1.35
2023-04-07T19:25:08.003Z,1.75
2023-04-07T19:27:39.511Z,1.50
2023-04-07T19:30:11.660Z,1.56
2023-04-07T19:32:39.544Z,1.48
2023-04-07T19:35:08.375Z,1.58
2023-04-07T19:37:37.901Z,1.55
2023-04-07T19:40:06.931Z,1.41
2023-04-07T19:42:34.960Z,1.60
2023-04-07T19:45:06.962Z,1.53
2023-04-07T19:47:36.754Z,1.36
2023-04-07T19:50:05.511Z,1.19
2023-04-07T19:52:33.981Z,1.50
2023-04-07T19:55:03.770Z,1.36
2023-04-07T19:57:32.262Z,1.08
2023-04-07T20:00:00.139Z,1.57
2023-04-07T20:02:30.386Z,1.52
2023-04-07T20:05:00.036Z,1.47
2023-04-07T20:07:28.230Z,1.37
2023-04-07T20:09:57.302Z,1.50
2023-04-07T20:12:25.347Z,1.51
2023-04-07T20:14:55.382Z,1.41
2023-04-07T20:17:23.240Z,1.28
2023-04-07T20:19:50.954Z,1.34
2023-04-07T20:22:21.980Z,1.34
2023-04-07T20:24:51.932Z,1.41
2023-04-07T20:27:19.840Z,1.50
2023-04-07T20:29:49.551Z,1.33
2023-04-07T20:32:20.073Z,1.44
2023-04-07T20:34:50.113Z,1.35
2023-04-07T20:40:29.486Z,1.30
2023-04-07T20:42:57.276Z,1.12
2023-04-07T20:45:25.410Z,1.27
2023-04-07T20:47:57.626Z,1.35
2023-04-07T20:50:25.845Z,1.43
2023-04-07T20:52:53.988Z,1.52
2023-04-07T20:55:24.584Z,1.53
2023-04-07T20:57:55.467Z,1.47
2023-04-07T21:00:23.249Z,1.39
2023-04-07T21:02:51.627Z,1.31
2023-04-07T21:05:21.848Z,1.22
2023-04-07T21:07:49.619Z,1.46
2023-04-07T21:10:19.846Z,1.38
2023-04-07T21:12:49.970Z,1.35
2023-04-07T21:15:19.290Z,1.22
2023-04-07T21:17:49.142Z,1.38
2023-04-07T21:20:19.212Z,1.23
2023-04-07T21:22:47.183Z,1.35
2023-04-07T21:25:16.748Z,1.46
2023-04-07T21:27:47.814Z,1.27
2023-04-07T21:30:16.638Z,1.30
2023-04-07T21:32:49.451Z,1.38
2023-04-07T21:35:17.582Z,1.39
2023-04-07T21:37:47.716Z,1.55
2023-04-07T21:40:17.347Z,1.52
2023-04-07T21:42:45.082Z,1.56
2023-04-07T21:45:17.440Z,1.56
2023-04-07T21:47:47.449Z,1.41
2023-04-07T21:50:18.840Z,1.49
2023-04-07T21:52:52.617Z,1.25
2023-04-07T21:55:20.710Z,1.35
2023-04-07T21:57:50.225Z,1.50
2023-04-07T22:00:20.155Z,1.47
2023-04-07T22:02:48.262Z,1.38
2023-04-07T22:05:17.995Z,1.05
2023-04-07T22:07:52.153Z,1.21
2023-04-07T22:10:19.897Z,1.28
2023-04-07T22:12:47.607Z,1.27
2023-04-07T22:15:19.404Z,1.38
2023-04-07T22:17:47.219Z,1.24
2023-04-07T22:20:15.955Z,1.02
2023-04-07T22:22:49.357Z,1.22
2023-04-07T22:25:17.210Z,1.42
2023-04-07T22:27:45.014Z,1.36
2023-04-07T22:30:17.424Z,1.11
2023-04-07T22:32:45.197Z,1.43
2023-04-07T22:35:17.804Z,1.43
2023-04-07T22:37:50.545Z,1.30
2023-04-07T22:40:18.442Z,1.22
2023-04-07T22:42:46.198Z,1.22
2023-04-07T22:45:18.447Z,1.37
2023-04-07T22:47:46.218Z,1.42
2023-04-07T22:50:14.026Z,1.51
2023-04-07T22:52:45.838Z,1.42
2023-04-07T22:55:14.993Z,1.36
2023-04-07T22:57:42.710Z,1.25
2023-04-07T23:00:14.871Z,1.19
2023-04-07T23:02:44.637Z,1.29
2023-04-07T23:05:12.678Z,1.30
2023-04-07T23:07:44.580Z,1.25
2023-04-07T23:10:13.787Z,1.38
2023-04-07T23:12:41.533Z,1.30
2023-04-07T23:15:14.002Z,1.41
2023-04-07T23:17:41.899Z,1.22
2023-04-07T23:20:10.874Z,1.36
2023-04-07T23:22:43.549Z,1.39
2023-04-07T23:25:12.609Z,1.45
2023-04-07T23:27:43.909Z,1.43
2023-04-07T23:30:14.637Z,1.43
2023-04-07T23:32:42.541Z,1.45
2023-04-07T23:35:14.638Z,1.48
2023-04-07T23:37:44.939Z,1.39
2023-04-07T23:40:15.502Z,1.51
2023-04-07T23:42:44.420Z,1.53
2023-04-07T23:45:14.397Z,1.58
2023-04-07T23:47:44.547Z,1.57
2023-04-07T23:50:12.652Z,1.46
2023-04-07T23:52:42.782Z,1.58
2023-04-07T23:55:13.027Z,1.56
2023-04-07T23:57:40.735Z,1.32
